Time;durP1;ratioP1;P1;durP2;ratioP2;P2;SDS_P1;SDS_P2;PMS_P1;PMS_P2;Temp;Humidity;BMP_temperature;BMP_pressure;BME280_temperature;BME280_humidity;BME280_pressure;Samples;Min_cycle;Max_cycle;Signal;HPM_P1;HPM_P2
2023/06/26 00:02:17;;;;;;;11.57;9.73;;;23.00;99.90;;;;;;5021495;28;20259;-73
2023/06/26 00:04:44;;;;;;;11.77;9.73;;;22.90;99.90;;;;;;5024370;28;20204;-72
2023/06/26 00:07:10;;;;;;;10.88;9.75;;;22.90;99.90;;;;;;5023956;28;20220;-73
2023/06/26 00:09:36;;;;;;;11.15;9.98;;;22.90;99.90;;;;;;5020340;28;20208;-73
2023/06/26 00:12:02;;;;;;;13.50;11.05;;;22.90;99.90;;;;;;5026175;28;20211;-73
2023/06/26 00:14:28;;;;;;;15.35;12.07;;;22.90;99.90;;;;;;5024310;28;20237;-73
2023/06/26 00:16:53;;;;;;;11.07;9.88;;;22.90;99.90;;;;;;5024456;28;20172;-73
2023/06/26 00:19:19;;;;;;;13.02;10.20;;;22.90;99.90;;;;;;5022264;28;20632;-73
2023/06/26 00:21:47;;;;;;;13.98;10.10;;;22.80;99.90;;;;;;5022021;28;20232;-73
2023/06/26 00:24:16;;;;;;;14.85;10.82;;;22.80;99.90;;;;;;5021149;28;20204;-73
2023/06/26 00:26:42;;;;;;;11.93;10.57;;;22.70;99.90;;;;;;5018348;28;20207;-72
2023/06/26 00:29:08;;;;;;;11.45;10.07;;;22.70;99.90;;;;;;5020812;28;20576;-72
2023/06/26 00:31:35;;;;;;;11.13;9.98;;;22.70;99.90;;;;;;5019549;28;20211;-73
2023/06/26 00:34:01;;;;;;;12.68;10.05;;;22.70;99.90;;;;;;5018911;28;20799;-73
2023/06/26 00:36:26;;;;;;;12.50;10.23;;;22.80;99.90;;;;;;5023787;28;20231;-73
2023/06/26 00:38:52;;;;;;;12.77;10.07;;;22.70;99.90;;;;;;5022614;28;20212;-73
2023/06/26 00:41:19;;;;;;;11.80;10.10;;;22.80;99.90;;;;;;5024142;28;20255;-73
2023/06/26 00:43:44;;;;;;;13.13;10.73;;;22.80;99.90;;;;;;5021642;28;20591;-73
2023/06/26 00:46:12;;;;;;;13.20;10.93;;;22.80;99.90;;;;;;5022474;28;20200;-73
2023/06/26 00:48:40;;;;;;;12.20;10.82;;;22.90;99.90;;;;;;5021742;28;20200;-72
2023/06/26 00:51:06;;;;;;;13.23;10.77;;;22.80;99.90;;;;;;5022201;28;20205;-73
2023/06/26 00:53:32;;;;;;;11.65;10.15;;;22.90;99.90;;;;;;5021851;28;20242;-73
2023/06/26 00:55:59;;;;;;;12.38;10.02;;;22.80;99.90;;;;;;5019868;28;20548;-73
2023/06/26 00:58:25;;;;;;;11.27;10.18;;;22.90;99.90;;;;;;5021329;28;20209;-73
2023/06/26 01:00:52;;;;;;;11.90;10.40;;;22.90;99.90;;;;;;5020883;28;20259;-73
2023/06/26 01:03:18;;;;;;;12.70;10.30;;;22.90;99.90;;;;;;5022989;28;20220;-74
2023/06/26 01:05:45;;;;;;;14.27;10.30;;;22.80;99.90;;;;;;5024407;28;20173;-74
2023/06/26 01:08:13;;;;;;;11.45;9.95;;;22.80;99.90;;;;;;5028214;28;20659;-74
2023/06/26 01:10:39;;;;;;;11.32;10.15;;;22.80;99.90;;;;;;5019838;28;20211;-72
2023/06/26 01:13:05;;;;;;;13.98;10.07;;;22.70;99.90;;;;;;5021712;28;20691;-72
2023/06/26 01:15:31;;;;;;;12.50;10.30;;;22.60;99.90;;;;;;5023752;28;20283;-73
2023/06/26 01:17:59;;;;;;;12.70;9.75;;;22.60;99.90;;;;;;5021178;28;20710;-72
2023/06/26 01:20:26;;;;;;;12.02;10.25;;;22.70;99.90;;;;;;5024059;28;20183;-73
2023/06/26 01:22:52;;;;;;;11.80;9.90;;;22.70;99.90;;;;;;5021556;28;20216;-72
2023/06/26 01:25:21;;;;;;;13.48;10.18;;;22.60;99.90;;;;;;5021200;28;20335;-73
2023/06/26 01:27:52;;;;;;;12.77;9.80;;;22.70;99.90;;;;;;5021792;28;20295;-73
2023/06/26 01:30:19;;;;;;;11.70;10.48;;;22.70;99.90;;;;;;5023045;28;20249;-72
2023/06/26 01:32:45;;;;;;;11.40;10.30;;;22.70;99.90;;;;;;5025104;28;20708;-72
2023/06/26 01:35:12;;;;;;;11.80;10.32;;;22.70;99.90;;;;;;5020526;28;20298;-73
2023/06/26 01:37:38;;;;;;;14.13;10.85;;;22.70;99.90;;;;;;5037563;28;20219;-74
2023/06/26 01:40:07;;;;;;;11.27;10.07;;;22.60;99.90;;;;;;5022029;28;20220;-73
2023/06/26 01:42:35;;;;;;;13.43;11.05;;;22.50;99.90;;;;;;5037251;28;20225;-73
2023/06/26 01:45:14;;;;;;;11.65;9.85;;;22.50;99.90;;;;;;5018986;28;20690;-72
2023/06/26 01:47:48;;;;;;;11.13;9.90;;;22.60;99.90;;;;;;5023827;28;20206;-73
2023/06/26 01:50:22;;;;;;;15.57;10.63;;;22.60;99.90;;;;;;5019504;28;20209;-73
2023/06/26 01:53:04;;;;;;;19.52;13.93;;;22.70;99.90;;;;;;5025311;28;20208;-73
2023/06/26 01:55:44;;;;;;;14.65;10.45;;;22.70;99.90;;;;;;5023102;28;20204;-73
2023/06/26 01:58:10;;;;;;;13.27;10.73;;;22.60;99.90;;;;;;5020238;28;20209;-73
2023/06/26 02:00:37;;;;;;;21.58;16.58;;;22.60;99.90;;;;;;5023503;28;20286;-73
2023/06/26 02:03:04;;;;;;;15.52;12.13;;;22.60;99.90;;;;;;5019594;28;20719;-73
2023/06/26 02:05:30;;;;;;;17.67;12.75;;;22.70;99.90;;;;;;5018664;28;20180;-73
2023/06/26 02:07:56;;;;;;;12.68;9.50;;;22.70;99.90;;;;;;5019572;28;20177;-73
2023/06/26 02:10:22;;;;;;;10.50;9.40;;;22.70;99.90;;;;;;5022570;28;20322;-73
2023/06/26 02:12:47;;;;;;;14.05;9.93;;;22.70;99.90;;;;;;5022830;28;20212;-73
2023/06/26 02:15:13;;;;;;;14.13;10.32;;;22.70;99.90;;;;;;5024250;28;20215;-73
2023/06/26 02:17:39;;;;;;;12.20;10.82;;;22.70;99.90;;;;;;5021203;28;20264;-73
2023/06/26 02:20:06;;;;;;;15.77;11.70;;;22.70;99.90;;;;;;5021709;28;20600;-72
2023/06/26 02:22:31;;;;;;;13.90;11.60;;;22.60;99.90;;;;;;5017656;28;20214;-72
2023/06/26 02:24:57;;;;;;;15.30;11.05;;;22.50;99.90;;;;;;5027085;28;20710;-72
2023/06/26 02:27:23;;;;;;;13.15;11.15;;;22.50;99.90;;;;;;5018681;28;20205;-73
2023/06/26 02:29:48;;;;;;;13.50;11.32;;;22.60;99.90;;;;;;5022521;28;20212;-73
2023/06/26 02:32:14;;;;;;;15.73;11.50;;;22.50;99.90;;;;;;5021908;28;20197;-73
2023/06/26 02:34:39;;;;;;;12.85;11.27;;;22.60;99.90;;;;;;5021680;28;20239;-73
2023/06/26 02:37:07;;;;;;;13.27;11.68;;;22.60;99.90;;;;;;5018651;28;20262;-74
2023/06/26 02:39:35;;;;;;;14.75;12.50;;;22.40;99.90;;;;;;5022944;28;20678;-73
2023/06/26 02:42:01;;;;;;;14.10;11.38;;;22.50;99.90;;;;;;5018479;28;20598;-72
2023/06/26 02:44:26;;;;;;;15.95;11.23;;;22.50;99.90;;;;;;5021543;28;20183;-73
2023/06/26 02:46:52;;;;;;;13.70;11.32;;;22.50;99.90;;;;;;5014674;28;20271;-73
2023/06/26 02:49:18;;;;;;;13.43;10.68;;;22.40;99.90;;;;;;5017935;28;20358;-73
2023/06/26 02:51:43;;;;;;;16.20;12.70;;;22.50;99.90;;;;;;5027690;28;20220;-73
2023/06/26 02:54:09;;;;;;;23.13;17.40;;;22.50;99.90;;;;;;5021001;28;20213;-73
2023/06/26 02:56:34;;;;;;;21.02;14.32;;;22.50;99.90;;;;;;5030150;28;20183;-73
2023/06/26 02:59:00;;;;;;;13.68;11.35;;;22.50;99.90;;;;;;5029003;28;20547;-73
2023/06/26 03:01:26;;;;;;;11.93;10.70;;;22.40;99.90;;;;;;5026922;28;20219;-73
2023/06/26 03:03:52;;;;;;;12.27;10.90;;;22.40;99.90;;;;;;5021429;28;20216;-73
2023/06/26 03:06:18;;;;;;;13.35;11.90;;;22.40;99.90;;;;;;5018335;28;20211;-73
2023/06/26 03:08:44;;;;;;;12.82;11.27;;;22.40;99.90;;;;;;5026402;28;20173;-73
2023/06/26 03:11:10;;;;;;;13.40;12.00;;;22.40;99.90;;;;;;5026090;28;20260;-73
2023/06/26 03:13:36;;;;;;;14.18;12.05;;;22.30;99.90;;;;;;5024729;28;20213;-73
2023/06/26 03:16:03;;;;;;;13.23;11.80;;;22.20;99.90;;;;;;5021494;28;20209;-72
2023/06/26 03:18:28;;;;;;;13.80;11.85;;;22.20;99.90;;;;;;5024424;28;20307;-71
2023/06/26 03:20:55;;;;;;;13.93;12.00;;;22.20;99.90;;;;;;5021765;28;20287;-73
2023/06/26 03:23:22;;;;;;;13.23;11.57;;;22.20;99.90;;;;;;5022520;28;20235;-73
2023/06/26 03:25:48;;;;;;;14.68;12.73;;;22.20;99.90;;;;;;5020260;28;20270;-73
2023/06/26 03:28:14;;;;;;;14.13;12.40;;;22.20;99.90;;;;;;5018549;28;20292;-73
2023/06/26 03:30:39;;;;;;;13.25;11.95;;;22.20;99.90;;;;;;5025956;28;20641;-73
2023/06/26 03:33:05;;;;;;;14.93;12.25;;;22.20;99.90;;;;;;5019715;28;20216;-73
2023/06/26 03:35:31;;;;;;;13.68;11.40;;;22.40;99.90;;;;;;5027711;28;20563;-72
2023/06/26 03:37:57;;;;;;;17.70;12.82;;;22.30;99.90;;;;;;5020741;28;20183;-72
2023/06/26 03:40:23;;;;;;;14.10;11.90;;;22.40;99.90;;;;;;5025476;28;20215;-74
2023/06/26 03:42:49;;;;;;;13.30;11.88;;;22.30;99.90;;;;;;5026904;28;20224;-72
2023/06/26 03:45:14;;;;;;;14.15;12.15;;;22.50;99.90;;;;;;5024816;28;20208;-73
2023/06/26 03:47:40;;;;;;;13.32;12.02;;;22.50;99.90;;;;;;5026289;28;20554;-73
2023/06/26 03:50:06;;;;;;;12.88;11.25;;;22.70;99.90;;;;;;5022820;28;21140;-72
2023/06/26 03:52:32;;;;;;;13.93;11.20;;;23.30;99.90;;;;;;5023046;28;20219;-73
2023/06/26 03:54:58;;;;;;;13.73;11.77;;;23.60;99.90;;;;;;5019456;28;20210;-73
2023/06/26 03:57:24;;;;;;;13.65;12.02;;;24.10;99.90;;;;;;5021317;28;20414;-73
2023/06/26 03:59:50;;;;;;;12.48;10.43;;;25.00;99.90;;;;;;5022461;28;20251;-73
2023/06/26 04:02:16;;;;;;;12.48;10.57;;;25.80;99.90;;;;;;5018424;28;20694;-73
2023/06/26 04:04:41;;;;;;;13.32;10.77;;;26.40;99.90;;;;;;5020127;28;20208;-73
2023/06/26 04:07:07;;;;;;;11.23;10.02;;;26.90;99.90;;;;;;5016611;28;20713;-73
2023/06/26 04:09:33;;;;;;;11.25;10.13;;;27.60;99.90;;;;;;5028164;28;20204;-73
2023/06/26 04:11:58;;;;;;;11.45;9.70;;;27.80;99.90;;;;;;5026004;28;20250;-73
2023/06/26 04:14:24;;;;;;;13.30;9.75;;;27.00;99.90;;;;;;5027729;28;20663;-73
2023/06/26 04:16:49;;;;;;;13.20;10.57;;;26.50;99.90;;;;;;5026542;28;20208;-71
2023/06/26 04:19:15;;;;;;;12.20;10.68;;;26.00;99.90;;;;;;5016553;28;20215;-73
2023/06/26 04:21:41;;;;;;;11.65;10.20;;;25.50;99.90;;;;;;5026248;28;20212;-73
2023/06/26 04:24:06;;;;;;;11.18;10.07;;;24.90;99.90;;;;;;5023904;28;20235;-73
2023/06/26 04:26:32;;;;;;;11.85;10.60;;;24.60;99.90;;;;;;5025270;28;20246;-73
2023/06/26 04:28:59;;;;;;;12.45;11.15;;;24.50;99.90;;;;;;5024296;28;20279;-72
2023/06/26 04:31:25;;;;;;;11.02;9.93;;;24.40;99.90;;;;;;5023719;28;20215;-73
2023/06/26 04:33:50;;;;;;;11.93;10.73;;;24.30;99.90;;;;;;5023149;28;20298;-72
2023/06/26 04:36:17;;;;;;;11.73;10.52;;;24.40;99.90;;;;;;5019968;28;20284;-73
2023/06/26 04:38:43;;;;;;;14.40;11.35;;;24.40;99.90;;;;;;5024286;28;20233;-73
2023/06/26 04:41:09;;;;;;;12.23;10.85;;;24.10;99.90;;;;;;5021928;28;20635;-73
2023/06/26 04:43:34;;;;;;;14.57;10.93;;;24.10;99.90;;;;;;5020885;28;20212;-73
2023/06/26 04:46:02;;;;;;;12.80;11.27;;;24.00;99.90;;;;;;5020881;28;20231;-73
2023/06/26 04:48:27;;;;;;;17.23;13.35;;;24.30;99.90;;;;;;5031199;28;20627;-73
2023/06/26 04:50:54;;;;;;;15.95;12.32;;;24.40;99.90;;;;;;5028443;28;20215;-73
2023/06/26 04:53:23;;;;;;;12.60;10.90;;;24.40;99.90;;;;;;5022299;28;20263;-73
2023/06/26 04:55:50;;;;;;;12.23;10.68;;;24.50;99.90;;;;;;5030557;28;21154;-73
2023/06/26 04:58:16;;;;;;;12.43;10.18;;;25.00;99.90;;;;;;5019855;28;20695;-73
2023/06/26 05:00:44;;;;;;;13.95;10.93;;;25.70;99.90;;;;;;5023454;28;20208;-73
2023/06/26 05:03:12;;;;;;;11.65;10.45;;;25.80;99.90;;;;;;5021764;28;20235;-73
2023/06/26 05:05:37;;;;;;;12.18;10.43;;;26.10;99.90;;;;;;5021908;28;20181;-73
2023/06/26 05:08:20;;;;;;;12.77;10.75;;;26.40;99.90;;;;;;5022780;28;20555;-73
2023/06/26 05:10:46;;;;;;;12.57;10.65;;;26.00;99.90;;;;;;5019960;28;20304;-73
2023/06/26 05:13:14;;;;;;;13.80;10.60;;;25.60;99.90;;;;;;5020782;28;20292;-73
2023/06/26 05:15:41;;;;;;;15.60;13.63;;;25.30;99.90;;;;;;5024168;28;20219;-73
2023/06/26 05:18:07;;;;;;;12.88;11.25;;;25.30;99.90;;;;;;5020722;28;20625;-72
2023/06/26 05:20:34;;;;;;;12.93;11.25;;;24.90;99.90;;;;;;5023500;28;20311;-73
2023/06/26 05:23:04;;;;;;;14.30;11.20;;;24.80;99.90;;;;;;5020846;28;20217;-73
2023/06/26 05:25:31;;;;;;;11.80;10.30;;;24.40;99.90;;;;;;5020251;28;20201;-73
2023/06/26 05:27:57;;;;;;;11.55;10.45;;;24.40;99.90;;;;;;5022698;28;20253;-73
2023/06/26 05:30:25;;;;;;;12.25;10.95;;;24.50;99.90;;;;;;5021378;28;20231;-71
2023/06/26 05:32:52;;;;;;;12.60;10.15;;;24.50;99.90;;;;;;5022833;28;20217;-73
2023/06/26 05:35:20;;;;;;;11.82;10.38;;;24.50;99.90;;;;;;5020804;28;20176;-73
2023/06/26 05:37:48;;;;;;;14.20;11.48;;;24.30;99.90;;;;;;5022802;28;20217;-73
2023/06/26 05:40:15;;;;;;;14.70;12.85;;;24.30;99.90;;;;;;5025102;28;20761;-73
2023/06/26 05:42:40;;;;;;;14.80;11.05;;;24.50;99.90;;;;;;5024125;28;20221;-73
2023/06/26 05:45:06;;;;;;;13.75;11.35;;;26.40;99.90;;;;;;5022204;28;20219;-74
2023/06/26 05:47:33;;;;;;;13.95;10.07;;;27.90;99.90;;;;;;5020126;28;20216;-73
2023/06/26 05:49:59;;;;;;;11.95;10.75;;;29.70;99.90;;;;;;5023256;28;20572;-73
2023/06/26 05:52:24;;;;;;;12.00;10.70;;;30.60;99.90;;;;;;5020988;28;20213;-73
2023/06/26 05:54:50;;;;;;;11.32;10.20;;;31.70;99.90;;;;;;5023386;28;20238;-73
2023/06/26 05:57:17;;;;;;;11.25;10.07;;;31.40;99.90;;;;;;5019545;28;20644;-73
2023/06/26 05:59:43;;;;;;;11.40;10.30;;;32.10;99.90;;;;;;5022782;28;20260;-73
2023/06/26 06:02:09;;;;;;;11.63;9.93;;;32.40;99.90;;;;;;5016766;28;20208;-73
2023/06/26 06:04:35;;;;;;;10.48;9.55;;;33.10;99.90;;;;;;5022008;28;20258;-73
2023/06/26 06:07:00;;;;;;;14.68;10.32;;;33.80;99.90;;;;;;5023018;28;20220;-73
2023/06/26 06:09:26;;;;;;;10.63;9.60;;;33.60;99.90;;;;;;5026005;28;20216;-74
2023/06/26 06:11:52;;;;;;;10.07;9.05;;;34.10;99.90;;;;;;5023716;28;20216;-72
2023/06/26 06:14:17;;;;;;;10.63;9.50;;;34.90;99.90;;;;;;5021139;28;20596;-72
2023/06/26 06:16:43;;;;;;;9.98;9.00;;;35.90;99.90;;;;;;5021135;28;20228;-73
2023/06/26 06:19:11;;;;;;;9.60;8.70;;;35.20;99.90;;;;;;5021608;28;20207;-72
2023/06/26 06:21:36;;;;;;;11.43;8.25;;;35.10;99.90;;;;;;5023168;28;20290;-74
2023/06/26 06:24:03;;;;;;;9.50;7.57;;;34.50;99.90;;;;;;5024236;28;20356;-72
2023/06/26 06:26:28;;;;;;;8.05;7.35;;;34.30;99.90;;;;;;5020042;28;20267;-73
2023/06/26 06:28:54;;;;;;;8.35;7.55;;;34.30;99.90;;;;;;5024495;28;20237;-73
2023/06/26 06:31:20;;;;;;;8.38;7.10;;;34.60;99.90;;;;;;5020405;28;20212;-73
2023/06/26 06:33:46;;;;;;;7.90;7.10;;;35.60;99.40;;;;;;5021982;28;20596;-72
2023/06/26 06:36:11;;;;;;;7.85;7.10;;;36.10;97.60;;;;;;5019273;28;20209;-73
2023/06/26 06:38:37;;;;;;;9.18;7.15;;;36.50;95.80;;;;;;5022271;28;20225;-72
2023/06/26 06:41:02;;;;;;;7.20;6.50;;;35.60;96.20;;;;;;5019544;28;20172;-72
2023/06/26 06:43:28;;;;;;;7.20;6.60;;;36.90;96.00;;;;;;5018017;28;20212;-73
2023/06/26 06:45:54;;;;;;;8.00;7.20;;;36.50;94.00;;;;;;5021044;28;20211;-73
2023/06/26 06:48:19;;;;;;;7.13;6.43;;;36.10;94.00;;;;;;5021079;28;20701;-73
2023/06/26 06:50:45;;;;;;;7.57;6.80;;;36.60;93.40;;;;;;5023625;28;20179;-73
2023/06/26 06:53:11;;;;;;;7.15;6.45;;;37.70;93.50;;;;;;5022063;28;20231;-73
2023/06/26 06:55:36;;;;;;;7.20;6.60;;;38.20;91.90;;;;;;5023175;28;20201;-73
2023/06/26 06:58:02;;;;;;;8.18;7.13;;;38.00;90.30;;;;;;5022335;28;20210;-73
2023/06/26 07:00:28;;;;;;;10.15;7.00;;;37.60;90.70;;;;;;5021684;28;20781;-73
2023/06/26 07:02:54;;;;;;;7.75;7.05;;;36.30;91.40;;;;;;5022544;28;20223;-73
2023/06/26 07:05:19;;;;;;;7.50;6.80;;;36.80;91.40;;;;;;5018822;28;20176;-73
2023/06/26 07:07:45;;;;;;;7.53;6.55;;;36.10;91.80;;;;;;5037205;28;20212;-73
2023/06/26 07:10:13;;;;;;;7.78;7.07;;;37.30;91.40;;;;;;5020075;28;20210;-73
2023/06/26 07:12:39;;;;;;;8.27;6.75;;;37.90;90.00;;;;;;5021674;28;20235;-73
2023/06/26 07:15:06;;;;;;;8.10;6.50;;;37.60;89.60;;;;;;5020150;28;20702;-73
2023/06/26 07:17:33;;;;;;;7.50;6.45;;;36.40;90.30;;;;;;5019750;28;20275;-74
2023/06/26 07:19:59;;;;;;;6.85;6.15;;;37.40;90.40;;;;;;5020066;28;20190;-73
2023/06/26 07:22:25;;;;;;;6.65;6.05;;;36.50;90.40;;;;;;5020143;28;20235;-73
2023/06/26 07:24:51;;;;;;;7.50;6.35;;;37.00;90.70;;;;;;5023201;28;20231;-73
2023/06/26 07:27:20;;;;;;;7.13;6.47;;;37.20;89.30;;;;;;5017298;28;20239;-73
2023/06/26 07:29:46;;;;;;;6.95;6.28;;;37.70;89.20;;;;;;5020152;28;20176;-74
2023/06/26 07:32:11;;;;;;;7.80;6.25;;;38.50;87.90;;;;;;5022236;28;20195;-74
2023/06/26 07:34:37;;;;;;;6.15;5.65;;;39.10;86.10;;;;;;5015968;28;20725;-74
2023/06/26 07:37:03;;;;;;;7.05;5.63;;;38.80;85.30;;;;;;5022421;28;20207;-73
2023/06/26 07:39:29;;;;;;;6.47;5.97;;;38.70;84.10;;;;;;5018579;28;20208;-73
2023/06/26 07:41:55;;;;;;;7.45;6.63;;;38.20;83.50;;;;;;5021410;28;20390;-73
2023/06/26 07:44:21;;;;;;;6.85;6.25;;;38.00;85.10;;;;;;5019099;28;20259;-72
2023/06/26 07:46:47;;;;;;;5.57;5.15;;;38.20;83.80;;;;;;5021558;28;20534;-73
2023/06/26 07:49:13;;;;;;;6.22;5.72;;;38.30;84.20;;;;;;5020715;28;20290;-72
2023/06/26 07:51:39;;;;;;;5.93;5.32;;;39.20;82.40;;;;;;5020715;28;20204;-72
2023/06/26 07:54:04;;;;;;;6.53;5.95;;;39.10;80.20;;;;;;5019883;28;20210;-72
2023/06/26 07:56:30;;;;;;;6.45;5.85;;;38.30;82.00;;;;;;5019951;28;20216;-72
2023/06/26 07:58:57;;;;;;;6.30;5.70;;;38.80;80.90;;;;;;5018331;28;20200;-72
2023/06/26 08:01:24;;;;;;;6.20;5.60;;;38.50;81.20;;;;;;5020908;28;20208;-72
2023/06/26 08:03:49;;;;;;;5.82;5.32;;;39.60;79.20;;;;;;5017942;28;20739;-72
2023/06/26 08:06:15;;;;;;;7.68;5.72;;;38.30;80.80;;;;;;5021886;28;20207;-73
2023/06/26 08:08:41;;;;;;;6.10;5.60;;;39.60;80.50;;;;;;5021423;28;20183;-73
2023/06/26 08:11:06;;;;;;;6.13;5.53;;;40.60;78.90;;;;;;5023260;28;20199;-73
2023/06/26 08:13:32;;;;;;;5.72;5.22;;;41.30;75.00;;;;;;5021572;28;20626;-73
2023/06/26 08:15:58;;;;;;;6.00;5.50;;;41.10;75.00;;;;;;5040700;28;20204;-72
2023/06/26 08:18:24;;;;;;;7.35;6.07;;;41.10;73.80;;;;;;5022378;28;20209;-73
2023/06/26 08:20:49;;;;;;;5.90;5.50;;;41.30;73.70;;;;;;5024446;28;20240;-73
2023/06/26 08:23:15;;;;;;;6.15;5.50;;;40.80;72.50;;;;;;5023095;28;20208;-73
2023/06/26 08:25:40;;;;;;;5.72;5.30;;;40.30;72.70;;;;;;5023622;28;20197;-72
2023/06/26 08:28:06;;;;;;;5.47;4.57;;;39.30;72.60;;;;;;5027234;28;20211;-73
2023/06/26 08:30:32;;;;;;;4.85;4.40;;;37.70;74.70;;;;;;5022769;28;20586;-73
2023/06/26 08:32:58;;;;;;;5.65;4.95;;;37.60;74.20;;;;;;5024661;28;20207;-73
2023/06/26 08:35:23;;;;;;;5.13;4.65;;;37.30;74.70;;;;;;5021136;28;20181;-73
2023/06/26 08:37:49;;;;;;;5.15;4.63;;;37.00;74.70;;;;;;5025229;28;20200;-73
2023/06/26 08:40:21;;;;;;;5.07;4.57;;;37.10;74.90;;;;;;5021704;28;20218;-73
2023/06/26 08:42:46;;;;;;;4.50;4.20;;;36.80;74.80;;;;;;5014298;28;20220;-73
2023/06/26 08:45:12;;;;;;;5.18;4.47;;;37.00;76.00;;;;;;5025302;28;20257;-72
2023/06/26 08:47:40;;;;;;;4.88;4.47;;;37.40;76.30;;;;;;5023464;28;20681;-74
2023/06/26 08:50:13;;;;;;;5.35;4.85;;;38.60;75.20;;;;;;5026030;28;20176;-73
2023/06/26 08:53:04;;;;;;;5.70;5.15;;;38.90;75.30;;;;;;5024014;28;20242;-74
2023/06/26 08:55:33;;;;;;;7.53;5.30;;;38.00;74.60;;;;;;5022900;28;20211;-74
2023/06/26 08:57:59;;;;;;;5.15;4.45;;;37.80;74.50;;;;;;5023090;28;20303;-73
2023/06/26 09:00:25;;;;;;;6.93;4.90;;;36.70;75.50;;;;;;5025755;28;20205;-74
2023/06/26 09:02:50;;;;;;;5.38;4.88;;;36.40;77.40;;;;;;5024495;28;20339;-73
2023/06/26 09:05:16;;;;;;;6.38;5.03;;;36.00;77.80;;;;;;5022923;28;20192;-73
2023/06/26 09:07:42;;;;;;;4.90;4.03;;;36.10;78.00;;;;;;5024474;28;20653;-73
2023/06/26 09:10:08;;;;;;;4.75;4.07;;;35.50;77.50;;;;;;5023124;28;20291;-73
2023/06/26 09:12:35;;;;;;;5.18;4.70;;;34.70;79.10;;;;;;5022649;28;20232;-73
2023/06/26 09:15:03;;;;;;;4.95;4.47;;;34.50;80.20;;;;;;5021738;28;20261;-73
2023/06/26 09:17:30;;;;;;;4.85;4.35;;;35.50;80.00;;;;;;5020745;28;20181;-74
2023/06/26 09:19:56;;;;;;;4.20;3.88;;;34.90;79.00;;;;;;5022896;28;20176;-74
2023/06/26 09:22:22;;;;;;;4.85;4.45;;;35.70;79.80;;;;;;5019545;28;20219;-74
2023/06/26 09:24:48;;;;;;;5.82;4.90;;;35.40;77.80;;;;;;5021133;28;20327;-74
2023/06/26 09:27:14;;;;;;;5.70;4.97;;;36.10;79.00;;;;;;5028153;28;20780;-72
2023/06/26 09:29:40;;;;;;;3.38;3.08;;;36.90;78.90;;;;;;5022954;28;20180;-74
2023/06/26 09:32:08;;;;;;;4.40;4.00;;;36.20;76.10;;;;;;5027617;28;20551;-74
2023/06/26 09:34:34;;;;;;;5.32;4.07;;;35.90;76.90;;;;;;5024672;28;20215;-74
2023/06/26 09:37:02;;;;;;;4.10;3.70;;;34.80;78.50;;;;;;5023923;28;20208;-74
2023/06/26 09:39:31;;;;;;;6.30;4.38;;;34.70;79.20;;;;;;5020790;28;20209;-74
2023/06/26 09:41:57;;;;;;;4.88;4.40;;;34.60;81.10;;;;;;5023044;28;20227;-74
2023/06/26 09:44:23;;;;;;;5.43;4.93;;;34.10;82.50;;;;;;5021026;28;20181;-74
2023/06/26 09:46:49;;;;;;;5.10;4.60;;;34.20;82.90;;;;;;5022752;28;20297;-74
2023/06/26 09:49:14;;;;;;;5.47;4.78;;;34.20;83.90;;;;;;5021488;28;20713;-74
2023/06/26 09:51:42;;;;;;;4.53;4.13;;;33.70;85.00;;;;;;5022130;28;20205;-74
2023/06/26 09:54:09;;;;;;;4.70;4.30;;;33.60;85.20;;;;;;5021523;28;20240;-74
2023/06/26 09:56:35;;;;;;;6.88;4.47;;;33.80;84.60;;;;;;5022159;28;20235;-74
2023/06/26 09:59:02;;;;;;;5.07;4.60;;;33.40;85.80;;;;;;5022009;28;20177;-73
2023/06/26 10:01:29;;;;;;;7.25;4.40;;;33.90;87.30;;;;;;5018771;28;20234;-72
2023/06/26 10:03:58;;;;;;;7.05;4.68;;;34.30;85.60;;;;;;5020820;28;20256;-73
2023/06/26 10:06:35;;;;;;;5.15;4.65;;;34.70;86.10;;;;;;5027302;28;20219;-73
2023/06/26 10:09:03;;;;;;;4.93;4.25;;;34.70;84.50;;;;;;5037702;28;20243;-73
2023/06/26 10:11:41;;;;;;;4.78;4.30;;;34.50;86.00;;;;;;5025443;28;20307;-73
2023/06/26 10:14:08;;;;;;;6.00;4.43;;;34.10;85.30;;;;;;5039790;28;20735;-73
2023/06/26 10:16:37;;;;;;;7.63;5.15;;;33.60;86.70;;;;;;5019244;28;20232;-71
2023/06/26 10:19:06;;;;;;;5.18;4.43;;;33.90;86.40;;;;;;5017166;28;20200;-72
2023/06/26 10:21:34;;;;;;;9.80;6.68;;;34.20;87.00;;;;;;5018154;28;20229;-73
2023/06/26 10:24:02;;;;;;;6.57;4.72;;;34.50;86.60;;;;;;5017886;28;20200;-73
2023/06/26 10:26:29;;;;;;;7.70;5.43;;;33.80;86.20;;;;;;5011222;28;20300;-73
2023/06/26 10:28:56;;;;;;;5.60;4.38;;;34.10;87.10;;;;;;5023396;28;20183;-73
2023/06/26 10:31:26;;;;;;;5.50;5.00;;;34.10;86.50;;;;;;5019477;28;20216;-73
2023/06/26 10:33:52;;;;;;;4.80;4.35;;;34.30;88.10;;;;;;5022530;28;20235;-73
2023/06/26 10:36:20;;;;;;;7.40;4.45;;;34.40;85.10;;;;;;5019495;28;20228;-73
2023/06/26 10:38:55;;;;;;;4.70;4.05;;;33.20;85.90;;;;;;5022393;28;20215;-73
2023/06/26 10:41:23;;;;;;;5.43;4.63;;;33.10;88.10;;;;;;5015313;28;20270;-72
2023/06/26 10:44:07;;;;;;;4.65;4.13;;;33.20;88.10;;;;;;5018647;28;20217;-73
2023/06/26 10:46:56;;;;;;;5.45;4.97;;;32.90;88.10;;;;;;5020691;28;20236;-73
2023/06/26 10:49:27;;;;;;;7.25;4.55;;;32.50;89.80;;;;;;5020179;28;20569;-72
2023/06/26 10:51:55;;;;;;;5.18;4.68;;;33.10;90.10;;;;;;5023219;28;20243;-72
2023/06/26 10:54:21;;;;;;;4.90;4.50;;;33.50;89.10;;;;;;5020881;28;20294;-72
2023/06/26 10:56:49;;;;;;;4.78;4.28;;;33.10;88.40;;;;;;5019172;28;20367;-72
2023/06/26 10:59:16;;;;;;;5.10;4.13;;;33.30;90.30;;;;;;5025497;28;20176;-72
2023/06/26 11:01:43;;;;;;;7.57;5.50;;;33.60;88.20;;;;;;5021410;28;20208;-72
2023/06/26 11:04:14;;;;;;;7.18;4.57;;;33.70;87.90;;;;;;5023060;28;20241;-72
2023/06/26 11:06:40;;;;;;;5.15;4.68;;;33.10;88.60;;;;;;5030888;23;20236;-70
2023/06/26 11:09:05;;;;;;;4.88;4.47;;;33.20;89.10;;;;;;5017000;28;20215;-72
2023/06/26 11:11:59;;;;;;;4.93;4.22;;;33.40;89.30;;;;;;5010914;28;20187;-70
2023/06/26 11:14:29;;;;;;;5.30;4.72;;;33.80;88.70;;;;;;5025043;28;20177;-68
2023/06/26 11:16:59;;;;;;;4.72;4.32;;;33.90;87.20;;;;;;5006410;28;20217;-70
2023/06/26 11:19:27;;;;;;;7.88;4.47;;;33.70;86.80;;;;;;5011362;28;20263;-70
2023/06/26 11:21:58;;;;;;;5.53;4.50;;;33.70;87.50;;;;;;5012241;28;20235;-70
2023/06/26 11:24:23;;;;;;;4.88;4.45;;;33.50;87.20;;;;;;5014147;28;20217;-69
2023/06/26 11:26:49;;;;;;;5.45;4.95;;;32.90;88.00;;;;;;5014633;28;20756;-70
2023/06/26 11:29:15;;;;;;;5.05;4.55;;;32.90;89.50;;;;;;5018265;28;20177;-70
2023/06/26 11:31:41;;;;;;;7.20;4.38;;;32.80;88.30;;;;;;5019317;28;20213;-71
2023/06/26 11:34:11;;;;;;;5.30;4.80;;;32.60;88.90;;;;;;5016834;28;20697;-70
2023/06/26 11:36:38;;;;;;;4.78;4.38;;;32.50;89.50;;;;;;5015474;28;20212;-71
2023/06/26 11:39:06;;;;;;;6.00;4.65;;;32.70;90.30;;;;;;5022552;28;20209;-71
2023/06/26 11:41:32;;;;;;;5.40;4.85;;;33.00;89.30;;;;;;5016417;28;20181;-71
2023/06/26 11:44:06;;;;;;;5.55;4.78;;;33.20;89.50;;;;;;5011488;28;20655;-69
2023/06/26 11:46:33;;;;;;;5.15;4.50;;;33.50;90.00;;;;;;5004933;28;20228;-70
2023/06/26 11:48:59;;;;;;;5.05;4.28;;;33.50;88.50;;;;;;5010660;28;20205;-68
2023/06/26 11:51:28;;;;;;;4.88;4.47;;;33.40;89.00;;;;;;5013741;28;20211;-70
2023/06/26 11:53:53;;;;;;;5.75;5.05;;;33.30;88.40;;;;;;5010341;28;20646;-72
2023/06/26 11:56:22;;;;;;;5.15;4.65;;;33.10;88.50;;;;;;5013419;28;20201;-71
2023/06/26 11:59:08;;;;;;;5.60;4.80;;;33.10;88.90;;;;;;5011627;28;20355;-70
2023/06/26 12:01:36;;;;;;;5.78;4.63;;;33.30;88.30;;;;;;5012994;28;20201;-71
2023/06/26 12:04:07;;;;;;;6.47;4.70;;;32.50;89.10;;;;;;5013270;28;20213;-70
2023/06/26 12:06:39;;;;;;;5.35;4.85;;;32.40;89.50;;;;;;5011379;28;20714;-71
2023/06/26 12:09:07;;;;;;;6.90;4.50;;;32.20;90.00;;;;;;5006882;28;20217;-70
2023/06/26 12:11:34;;;;;;;5.63;5.10;;;32.50;90.10;;;;;;5010744;28;20180;-71
2023/06/26 12:14:00;;;;;;;5.65;5.10;;;32.70;90.30;;;;;;5009341;28;20234;-70
2023/06/26 12:16:30;;;;;;;10.65;7.72;;;32.60;89.30;;;;;;5020400;28;20210;-71
2023/06/26 12:19:04;;;;;;;7.82;5.60;;;32.60;90.00;;;;;;5015183;28;20213;-71
2023/06/26 12:21:41;;;;;;;8.18;6.03;;;32.40;89.70;;;;;;5013520;28;20232;-71
2023/06/26 12:24:10;;;;;;;7.32;5.85;;;32.80;90.50;;;;;;5009699;28;20291;-70
2023/06/26 12:26:38;;;;;;;5.95;5.18;;;32.80;89.70;;;;;;5015415;28;20197;-72
2023/06/26 12:29:11;;;;;;;7.00;5.68;;;32.90;90.20;;;;;;5017466;28;20177;-71
2023/06/26 12:31:50;;;;;;;6.80;5.30;;;33.00;89.80;;;;;;5011708;28;20236;-69
2023/06/26 12:34:20;;;;;;;7.68;5.28;;;32.80;90.50;;;;;;5011794;28;20205;-70
2023/06/26 12:36:50;;;;;;;6.28;5.32;;;32.80;90.20;;;;;;5010871;28;20217;-71
2023/06/26 12:39:22;;;;;;;6.28;5.68;;;32.50;90.40;;;;;;5013483;28;20259;-70